Bonney Lake, Washington
Current Conditions -  °F | °C
As of 3:58 PM on Friday 24 Oct 2014 (Local Time) from KTCM Reporting Station
Clear Clear  
Wind Chill: 55°   Ceiling: Unl
Heat Index: 55°   Visibility: 8mi
Dew Point: 49°   Wind: 3mph
Humidity: 80%   Direction: 30°NNE
Pressure: 29.91"   Gusts: NA
Location:  47.17°N, 122.17°W
Report Text: KTCM 242258Z AUTO 03003KT 8SM CLR 13/09 A2991 RMK AO2 SLP133 T01270094 $
Loading
Personal Weather Stations






























Interactive Weather Map
Tropical Storm Tracking
New forecast layout! Learn more

10-Day Weather Forecast

Advertisements
Track Severe Weather on mobile